createdAt,value
2023-02-17T00:00:43.034Z,3.80
2023-02-17T00:03:14.009Z,3.80
2023-02-17T00:05:45.954Z,3.70
2023-02-17T00:08:16.964Z,3.70
2023-02-17T00:10:49.627Z,3.70
2023-02-17T00:13:20.595Z,3.80
2023-02-17T00:15:51.592Z,3.80
2023-02-17T00:18:22.486Z,4.10
2023-02-17T00:20:53.334Z,4.00
2023-02-17T00:23:24.250Z,3.90
2023-02-17T00:25:55.469Z,3.80
2023-02-17T00:28:26.467Z,3.70
2023-02-17T00:30:57.629Z,3.70
2023-02-17T00:33:29.031Z,3.60
2023-02-17T00:36:00.036Z,3.60
2023-02-17T00:38:31.656Z,3.40
2023-02-17T00:41:02.688Z,3.40
2023-02-17T00:43:33.707Z,3.60
2023-02-17T00:46:05.029Z,3.90
2023-02-17T00:48:36.540Z,4.00
2023-02-17T00:51:08.546Z,4.10
2023-02-17T00:53:39.866Z,4.00
2023-02-17T00:56:11.478Z,3.90
2023-02-17T00:58:43.134Z,3.60
2023-02-17T01:01:14.205Z,3.50
2023-02-17T01:03:45.155Z,3.40
2023-02-17T01:06:19.758Z,3.50
2023-02-17T01:08:50.854Z,3.50
2023-02-17T01:11:22.986Z,3.60
2023-02-17T01:13:54.422Z,3.60
2023-02-17T01:16:28.095Z,3.80
2023-02-17T01:18:59.323Z,3.80
2023-02-17T01:21:32.169Z,3.80
2023-02-17T01:24:05.601Z,3.60
2023-02-17T01:26:39.311Z,3.40
2023-02-17T01:29:10.685Z,3.30
2023-02-17T01:31:42.501Z,3.20
2023-02-17T01:34:14.037Z,3.20
2023-02-17T01:36:44.954Z,3.20
2023-02-17T01:39:17.318Z,3.10
2023-02-17T01:41:49.229Z,3.10
2023-02-17T01:44:22.182Z,3.10
2023-02-17T01:46:54.567Z,3.10
2023-02-17T01:49:33.219Z,3.10
2023-02-17T01:52:09.871Z,3.20
2023-02-17T01:54:44.503Z,3.00
2023-02-17T01:57:18.023Z,2.90
2023-02-17T01:59:49.413Z,2.80
2023-02-17T02:02:21.358Z,2.80
2023-02-17T02:04:54.617Z,2.90
2023-02-17T02:07:28.837Z,3.00
2023-02-17T02:10:00.793Z,3.10
2023-02-17T02:12:33.949Z,3.30
2023-02-17T02:15:07.961Z,3.40
2023-02-17T02:17:42.490Z,3.30
2023-02-17T02:20:38.230Z,3.40
2023-02-17T02:23:21.042Z,3.40
2023-02-17T02:26:20.314Z,3.20
2023-02-17T02:29:02.349Z,3.30
2023-02-17T02:31:38.918Z,3.00
2023-02-17T02:34:12.706Z,2.70
2023-02-17T02:36:46.838Z,2.70
2023-02-17T02:39:20.450Z,2.70
2023-02-17T02:41:54.468Z,2.60
2023-02-17T02:44:25.697Z,2.60
2023-02-17T02:47:00.859Z,2.60
2023-02-17T02:49:33.461Z,2.80
2023-02-17T02:52:07.417Z,2.70
2023-02-17T02:54:47.572Z,2.60
2023-02-17T02:57:35.514Z,2.70
2023-02-17T03:00:13.845Z,2.70
2023-02-17T03:02:48.343Z,2.70
2023-02-17T03:05:23.899Z,2.70
2023-02-17T03:07:57.746Z,2.70
2023-02-17T03:10:29.410Z,2.80
2023-02-17T03:13:02.781Z,2.70
2023-02-17T03:15:35.458Z,2.60
2023-02-17T03:18:07.306Z,2.50
2023-02-17T03:20:41.085Z,2.40
2023-02-17T03:23:12.213Z,2.50
2023-02-17T03:25:44.922Z,2.60
2023-02-17T03:28:16.458Z,2.80
2023-02-17T03:30:47.653Z,2.60
2023-02-17T03:33:18.594Z,2.50
2023-02-17T03:35:49.470Z,2.50
2023-02-17T03:38:20.585Z,2.50
2023-02-17T03:40:53.331Z,2.60
2023-02-17T03:43:24.316Z,2.80
2023-02-17T03:45:55.379Z,2.80
2023-02-17T03:48:26.390Z,2.60
2023-02-17T03:50:57.299Z,2.50
2023-02-17T03:53:28.323Z,2.50
2023-02-17T03:55:59.252Z,2.50
2023-02-17T03:58:30.175Z,2.40
2023-02-17T04:01:01.256Z,2.40
2023-02-17T04:03:32.530Z,2.40
2023-02-17T04:06:04.248Z,2.30
2023-02-17T04:08:35.927Z,2.30
2023-02-17T04:11:08.318Z,2.20
2023-02-17T04:13:40.065Z,2.20
2023-02-17T04:16:12.391Z,2.20
2023-02-17T04:18:43.415Z,2.20
2023-02-17T04:21:14.475Z,2.20
2023-02-17T04:23:46.509Z,2.10
2023-02-17T04:26:17.594Z,2.00
2023-02-17T04:28:48.433Z,1.90
2023-02-17T04:31:19.483Z,2.20
2023-02-17T04:33:50.521Z,2.30
2023-02-17T04:36:21.540Z,2.00
2023-02-17T04:38:52.729Z,1.90
2023-02-17T04:41:24.039Z,1.80
2023-02-17T04:43:55.053Z,1.80
2023-02-17T04:46:26.132Z,1.70
2023-02-17T04:48:57.306Z,1.80
2023-02-17T04:51:28.366Z,2.00
2023-02-17T04:53:59.409Z,2.20
2023-02-17T04:56:30.727Z,2.40
2023-02-17T04:59:01.577Z,2.20
2023-02-17T05:01:32.549Z,2.00
2023-02-17T05:04:03.616Z,2.30
2023-02-17T05:06:34.716Z,2.30
2023-02-17T05:09:05.875Z,2.00
2023-02-17T05:11:36.794Z,2.00
2023-02-17T05:14:07.645Z,1.90
2023-02-17T05:16:38.810Z,2.10
2023-02-17T05:19:09.850Z,2.20
2023-02-17T05:21:41.125Z,2.00
2023-02-17T05:24:12.383Z,1.70
2023-02-17T05:26:43.586Z,1.60
2023-02-17T05:29:14.544Z,1.70
2023-02-17T05:31:45.663Z,1.70
2023-02-17T05:34:16.717Z,1.80
2023-02-17T05:36:47.620Z,1.80
2023-02-17T05:39:18.545Z,1.80
2023-02-17T05:41:49.480Z,2.10
2023-02-17T05:44:20.636Z,2.10
2023-02-17T05:46:51.735Z,2.00
2023-02-17T05:49:22.828Z,1.90
2023-02-17T05:51:53.820Z,1.70
2023-02-17T05:54:25.329Z,1.60
2023-02-17T05:56:56.429Z,1.70
2023-02-17T05:59:28.016Z,1.50
2023-02-17T06:01:58.987Z,1.40
2023-02-17T06:04:30.289Z,1.30
2023-02-17T06:07:02.640Z,1.50
2023-02-17T06:09:33.804Z,1.60
2023-02-17T06:12:04.832Z,1.50
2023-02-17T06:14:35.833Z,1.60
2023-02-17T06:17:06.972Z,1.50
2023-02-17T06:19:38.241Z,1.40
2023-02-17T06:22:09.094Z,1.70
2023-02-17T06:24:40.107Z,1.60
2023-02-17T06:27:11.062Z,1.60
2023-02-17T06:29:42.229Z,1.50
2023-02-17T06:32:13.185Z,1.60
2023-02-17T06:34:44.691Z,1.60
2023-02-17T06:37:16.029Z,1.70
2023-02-17T06:39:46.907Z,1.50
2023-02-17T06:42:17.793Z,1.60
2023-02-17T06:44:49.274Z,1.70
2023-02-17T06:47:20.427Z,1.90
2023-02-17T06:49:51.532Z,2.10
2023-02-17T06:52:22.451Z,2.30
2023-02-17T06:54:53.481Z,2.40
2023-02-17T06:57:24.821Z,2.40
2023-02-17T06:59:55.824Z,2.40
2023-02-17T07:02:27.994Z,2.30
2023-02-17T07:05:00.652Z,2.40
2023-02-17T07:07:31.809Z,2.30
2023-02-17T07:10:03.515Z,2.20
2023-02-17T07:12:34.611Z,2.20
2023-02-17T07:15:12.073Z,2.20
2023-02-17T07:17:41.690Z,1.80
2023-02-17T07:20:14.946Z,1.70
2023-02-17T07:22:46.113Z,1.60
2023-02-17T07:25:17.633Z,1.60
2023-02-17T07:27:48.971Z,1.80
2023-02-17T07:30:20.924Z,1.90
2023-02-17T07:32:51.913Z,2.00
2023-02-17T07:35:23.017Z,1.90
2023-02-17T07:37:53.915Z,1.90
2023-02-17T07:40:25.221Z,1.90
2023-02-17T07:42:58.253Z,2.00
2023-02-17T07:45:29.692Z,2.20
2023-02-17T07:48:00.676Z,2.30
2023-02-17T07:50:32.189Z,2.50
2023-02-17T07:53:03.393Z,2.70
2023-02-17T07:55:35.991Z,2.90
2023-02-17T07:58:07.053Z,3.00
2023-02-17T08:00:38.334Z,3.10
2023-02-17T08:03:10.886Z,3.20
2023-02-17T08:05:42.831Z,3.20
2023-02-17T08:08:31.094Z,3.40
2023-02-17T08:11:22.391Z,3.40
2023-02-17T08:13:53.535Z,3.50
2023-02-17T08:16:26.070Z,3.50
2023-02-17T08:18:57.537Z,3.50
2023-02-17T08:21:30.299Z,3.60
2023-02-17T08:24:01.249Z,3.80
2023-02-17T08:26:32.226Z,4.10
2023-02-17T08:29:03.174Z,4.30
2023-02-17T08:31:36.318Z,4.30
2023-02-17T08:34:09.385Z,4.40
2023-02-17T08:36:40.552Z,4.40
2023-02-17T08:39:14.118Z,4.40
2023-02-17T08:41:46.862Z,4.50
2023-02-17T08:44:20.982Z,4.60
2023-02-17T08:46:53.150Z,4.70
2023-02-17T08:49:27.126Z,4.90
2023-02-17T08:51:58.163Z,5.00
2023-02-17T08:54:29.156Z,5.10
2023-02-17T08:57:01.346Z,5.30
2023-02-17T08:59:32.275Z,5.50
2023-02-17T09:02:03.320Z,5.60
2023-02-17T09:04:34.560Z,5.70
2023-02-17T09:07:05.703Z,5.70
2023-02-17T09:09:37.289Z,5.80
2023-02-17T09:12:09.603Z,5.90
2023-02-17T09:14:41.297Z,6.10
2023-02-17T09:17:12.988Z,6.10
2023-02-17T09:19:44.385Z,6.30
2023-02-17T09:22:30.825Z,6.60
2023-02-17T09:24:50.006Z,6.80
2023-02-17T09:27:21.565Z,7.20
2023-02-17T09:29:52.839Z,7.10
2023-02-17T09:32:24.681Z,7.00
2023-02-17T09:35:03.532Z,6.80
2023-02-17T09:37:34.462Z,7.00
2023-02-17T09:40:07.014Z,7.00
2023-02-17T09:42:40.785Z,7.00
2023-02-17T09:45:15.467Z,7.00
2023-02-17T09:47:49.558Z,6.90
2023-02-17T09:50:23.321Z,7.00
2023-02-17T09:52:57.103Z,7.00
2023-02-17T09:55:30.893Z,6.90
2023-02-17T09:58:06.094Z,6.80
2023-02-17T10:00:39.766Z,6.90
2023-02-17T10:03:16.558Z,6.90
2023-02-17T10:08:30.243Z,7.10
2023-02-17T10:11:04.490Z,7.30
2023-02-17T10:13:38.260Z,7.50
2023-02-17T10:16:12.382Z,7.60
2023-02-17T10:18:47.091Z,7.60
2023-02-17T10:21:22.375Z,7.60
2023-02-17T10:23:53.369Z,7.80
2023-02-17T10:26:30.310Z,8.00
2023-02-17T10:29:04.416Z,8.10
2023-02-17T10:34:26.654Z,8.40
2023-02-17T10:37:00.768Z,8.80
2023-02-17T10:39:39.237Z,8.90
2023-02-17T10:42:12.998Z,9.00
2023-02-17T10:44:43.906Z,9.00
2023-02-17T10:47:15.854Z,9.20
2023-02-17T10:49:49.699Z,9.30
2023-02-17T10:52:23.094Z,9.60
2023-02-17T10:54:57.777Z,9.90
2023-02-17T10:57:32.403Z,10.20
2023-02-17T11:00:05.811Z,10.40
2023-02-17T11:02:39.645Z,10.60
2023-02-17T11:05:12.570Z,10.70
2023-02-17T11:07:44.356Z,10.90
2023-02-17T11:10:26.923Z,11.00
2023-02-17T11:12:59.163Z,11.40
2023-02-17T11:15:33.658Z,11.50
2023-02-17T11:18:12.408Z,11.60
2023-02-17T11:20:43.736Z,11.50
2023-02-17T11:23:26.045Z,11.40
2023-02-17T11:26:19.736Z,11.70
2023-02-17T11:28:50.849Z,11.80
2023-02-17T11:31:29.727Z,11.80
2023-02-17T11:34:01.326Z,11.60
2023-02-17T11:36:33.325Z,11.80
2023-02-17T11:41:54.348Z,12.50
2023-02-17T11:44:30.782Z,12.90
2023-02-17T11:47:09.920Z,13.40
2023-02-17T11:49:59.724Z,13.40
2023-02-17T11:52:38.760Z,13.70
2023-02-17T11:55:19.600Z,13.90
2023-02-17T11:57:58.037Z,14.40
2023-02-17T12:03:47.838Z,14.70
2023-02-17T12:06:21.951Z,14.60
2023-02-17T12:09:03.336Z,14.30
2023-02-17T12:11:38.278Z,14.40
2023-02-17T12:14:27.107Z,14.40
2023-02-17T12:17:01.984Z,14.70
2023-02-17T12:19:40.740Z,15.40
2023-02-17T12:22:26.020Z,15.50
2023-02-17T12:25:22.856Z,15.60
2023-02-17T12:28:00.271Z,16.50
2023-02-17T12:30:48.900Z,16.80
2023-02-17T12:33:28.729Z,16.70
2023-02-17T12:36:02.680Z,17.10
2023-02-17T12:41:16.954Z,17.20
2023-02-17T12:43:51.313Z,17.40
2023-02-17T12:46:25.558Z,17.40
2023-02-17T12:48:59.938Z,17.70
2023-02-17T12:51:33.670Z,17.10
2023-02-17T12:56:56.604Z,16.70
2023-02-17T12:59:31.118Z,16.70
2023-02-17T13:02:05.161Z,16.70
2023-02-17T13:04:36.930Z,16.90
2023-02-17T13:07:34.507Z,17.20
2023-02-17T13:10:05.805Z,17.10
2023-02-17T13:12:40.744Z,17.60
2023-02-17T13:15:46.671Z,17.80
2023-02-17T13:18:29.466Z,17.70
2023-02-17T13:21:02.950Z,18.10
2023-02-17T13:23:40.386Z,16.60
2023-02-17T13:26:31.118Z,16.20
2023-02-17T13:29:24.593Z,16.30
2023-02-17T13:31:58.112Z,16.60
2023-02-17T13:34:32.894Z,16.40
2023-02-17T13:37:05.918Z,17.50
2023-02-17T13:39:39.081Z,17.50
2023-02-17T13:42:47.814Z,17.00
2023-02-17T13:45:24.178Z,17.20
2023-02-17T13:47:57.150Z,17.30
2023-02-17T13:50:34.884Z,17.60
2023-02-17T13:53:11.580Z,17.90
2023-02-17T13:55:43.049Z,17.60
2023-02-17T13:58:13.843Z,17.50
2023-02-17T14:00:46.544Z,18.00
2023-02-17T14:03:21.060Z,18.10
2023-02-17T14:05:53.713Z,18.10
2023-02-17T14:08:30.795Z,18.60
2023-02-17T14:11:05.626Z,18.30
2023-02-17T14:13:38.132Z,17.90
2023-02-17T14:16:09.820Z,18.00
2023-02-17T14:18:43.244Z,17.70
2023-02-17T14:21:18.554Z,17.30
2023-02-17T14:23:52.334Z,17.00
2023-02-17T14:26:32.381Z,17.10
2023-02-17T14:29:05.884Z,16.90
2023-02-17T14:31:41.597Z,16.50
2023-02-17T14:34:21.028Z,16.40
2023-02-17T14:36:51.885Z,16.40
2023-02-17T14:39:23.351Z,16.30
2023-02-17T14:41:54.196Z,16.00
2023-02-17T14:44:24.886Z,16.10
2023-02-17T14:46:55.769Z,15.90
2023-02-17T14:49:26.561Z,15.90
2023-02-17T14:51:57.526Z,16.00
2023-02-17T14:54:30.527Z,16.00
2023-02-17T14:57:06.476Z,16.00
2023-02-17T14:59:37.539Z,15.90
2023-02-17T15:02:15.176Z,15.80
2023-02-17T15:04:46.331Z,15.70
2023-02-17T15:07:19.516Z,15.80
2023-02-17T15:09:50.940Z,15.60
2023-02-17T15:12:26.510Z,15.70
2023-02-17T15:14:56.841Z,15.40
2023-02-17T15:17:27.663Z,15.20
2023-02-17T15:19:58.415Z,15.00
2023-02-17T15:22:29.149Z,15.10
2023-02-17T15:24:59.757Z,15.10
2023-02-17T15:27:30.512Z,15.00
2023-02-17T15:30:01.249Z,15.10
2023-02-17T15:32:32.135Z,15.10
2023-02-17T15:35:02.958Z,15.00
2023-02-17T15:37:33.623Z,15.00
2023-02-17T15:40:04.857Z,15.10
2023-02-17T15:42:35.586Z,15.10
2023-02-17T15:45:07.006Z,15.10
2023-02-17T15:47:37.709Z,15.10
2023-02-17T15:50:19.186Z,15.00
2023-02-17T15:52:50.479Z,15.00
2023-02-17T15:55:23.713Z,15.00
2023-02-17T15:57:57.891Z,14.90
2023-02-17T16:00:30.375Z,14.80
2023-02-17T16:03:01.637Z,14.80
2023-02-17T16:05:34.034Z,14.70
2023-02-17T16:08:05.334Z,14.70
2023-02-17T16:10:37.138Z,14.70
2023-02-17T16:13:08.484Z,14.70
2023-02-17T16:15:41.735Z,14.60
2023-02-17T16:20:55.326Z,14.50
2023-02-17T16:23:26.639Z,14.40
2023-02-17T16:25:59.339Z,14.40
2023-02-17T16:28:31.430Z,14.40
2023-02-17T16:31:02.784Z,14.10
2023-02-17T16:33:33.915Z,13.80
2023-02-17T16:36:05.857Z,14.00
2023-02-17T16:38:37.841Z,14.00
2023-02-17T16:41:09.261Z,13.90
2023-02-17T16:43:40.459Z,13.80
2023-02-17T16:48:58.266Z,13.90
2023-02-17T16:51:29.805Z,13.70
2023-02-17T16:54:00.864Z,13.70
2023-02-17T16:56:34.993Z,13.60
2023-02-17T16:59:06.071Z,13.60
2023-02-17T17:01:36.981Z,13.50
2023-02-17T17:04:08.942Z,13.40
2023-02-17T17:06:42.047Z,13.40
2023-02-17T17:09:17.990Z,13.30
2023-02-17T17:11:48.943Z,13.30
2023-02-17T17:14:21.673Z,13.30
2023-02-17T17:16:55.637Z,13.20
2023-02-17T17:19:28.424Z,13.00
2023-02-17T17:22:02.469Z,13.30
2023-02-17T17:24:35.840Z,13.30
2023-02-17T17:27:09.846Z,13.20
2023-02-17T17:29:42.119Z,13.00
2023-02-17T17:32:13.482Z,12.80
2023-02-17T17:34:45.288Z,12.60
2023-02-17T17:37:16.005Z,12.60
2023-02-17T17:39:47.267Z,12.60
2023-02-17T17:42:18.171Z,12.80
2023-02-17T17:44:49.205Z,12.90
2023-02-17T17:47:29.728Z,12.90
2023-02-17T17:49:53.970Z,13.00
2023-02-17T17:52:24.854Z,12.90
2023-02-17T17:54:55.453Z,12.80
2023-02-17T17:57:26.459Z,12.70
2023-02-17T17:59:57.343Z,12.90
2023-02-17T18:02:28.397Z,12.90
2023-02-17T18:04:59.173Z,12.90
2023-02-17T18:07:31.780Z,12.90
2023-02-17T18:10:06.088Z,12.90
2023-02-17T18:12:37.593Z,12.70
2023-02-17T18:15:10.982Z,12.60
2023-02-17T18:20:18.499Z,12.50
2023-02-17T18:22:49.893Z,12.40
2023-02-17T18:25:21.522Z,12.30
2023-02-17T18:27:52.917Z,12.30
2023-02-17T18:33:03.254Z,12.20
2023-02-17T18:35:36.959Z,12.20
2023-02-17T18:38:07.945Z,12.10
2023-02-17T18:40:40.539Z,12.00
2023-02-17T18:43:11.974Z,11.80
2023-02-17T18:46:01.654Z,11.70
2023-02-17T18:48:32.974Z,11.60
2023-02-17T18:51:07.915Z,11.50
2023-02-17T18:53:39.020Z,11.60
2023-02-17T18:56:14.197Z,11.50
2023-02-17T19:01:24.307Z,11.80
2023-02-17T19:03:56.311Z,12.00
2023-02-17T19:06:30.041Z,12.00
2023-02-17T19:09:01.065Z,12.00
2023-02-17T19:11:32.701Z,12.00
2023-02-17T19:14:04.379Z,12.00
2023-02-17T19:16:35.642Z,12.00
2023-02-17T19:19:08.062Z,11.90
2023-02-17T19:21:41.549Z,11.90
2023-02-17T19:24:14.960Z,11.90
2023-02-17T19:26:48.079Z,12.10
2023-02-17T19:29:18.959Z,12.00
2023-02-17T19:31:50.808Z,11.90
2023-02-17T19:34:22.645Z,11.70
2023-02-17T19:36:54.031Z,11.70
2023-02-17T19:39:25.555Z,11.70
2023-02-17T19:41:56.517Z,11.60
2023-02-17T19:44:27.779Z,11.60
2023-02-17T19:46:59.181Z,11.70
2023-02-17T19:49:30.762Z,11.60
2023-02-17T19:52:03.089Z,11.50
2023-02-17T19:54:35.294Z,11.60
2023-02-17T19:57:06.755Z,11.60
2023-02-17T19:59:38.114Z,11.60
2023-02-17T20:02:10.983Z,11.70
2023-02-17T20:04:42.744Z,11.80
2023-02-17T20:07:13.923Z,11.80
2023-02-17T20:09:45.365Z,11.70
2023-02-17T20:12:18.204Z,11.80
2023-02-17T20:14:49.598Z,11.80
2023-02-17T20:17:23.736Z,11.90
2023-02-17T20:19:54.929Z,11.80
2023-02-17T20:22:25.804Z,11.90
2023-02-17T20:24:56.593Z,11.90
2023-02-17T20:27:28.335Z,11.90
2023-02-17T20:30:01.093Z,11.90
2023-02-17T20:32:32.185Z,11.90
2023-02-17T20:35:03.132Z,11.90
2023-02-17T20:37:33.906Z,12.00
2023-02-17T20:40:05.138Z,11.90
2023-02-17T20:42:36.015Z,11.90
2023-02-17T20:45:08.492Z,11.80
2023-02-17T20:47:39.465Z,11.80
2023-02-17T20:50:14.147Z,11.80
2023-02-17T20:52:45.374Z,11.80
2023-02-17T20:55:18.009Z,11.80
2023-02-17T20:57:48.755Z,11.70
2023-02-17T21:00:22.946Z,11.60
2023-02-17T21:02:53.841Z,11.60
2023-02-17T21:05:26.450Z,11.60
2023-02-17T21:07:58.451Z,11.60
2023-02-17T21:10:31.678Z,11.50
2023-02-17T21:13:02.265Z,11.50
2023-02-17T21:15:34.485Z,11.60
2023-02-17T21:18:05.654Z,11.70
2023-02-17T21:20:36.254Z,11.60
2023-02-17T21:23:07.014Z,11.60
2023-02-17T21:25:38.087Z,11.50
2023-02-17T21:28:08.762Z,11.50
2023-02-17T21:30:39.380Z,11.40
2023-02-17T21:33:10.018Z,11.40
2023-02-17T21:35:40.786Z,11.40
2023-02-17T21:38:12.970Z,11.30
2023-02-17T21:40:43.742Z,11.30
2023-02-17T21:43:32.347Z,11.20
2023-02-17T21:46:04.552Z,11.00
2023-02-17T21:48:34.630Z,11.00
2023-02-17T21:51:11.157Z,10.90
2023-02-17T21:53:41.813Z,10.90
2023-02-17T21:56:12.555Z,11.00
2023-02-17T21:58:46.182Z,10.90
2023-02-17T22:01:17.089Z,10.90
2023-02-17T22:03:48.218Z,10.90
2023-02-17T22:06:20.918Z,10.90
2023-02-17T22:08:51.645Z,10.90
2023-02-17T22:11:24.507Z,10.80
2023-02-17T22:13:57.887Z,10.80
2023-02-17T22:16:30.483Z,10.80
2023-02-17T22:19:01.564Z,10.70
2023-02-17T22:21:32.727Z,10.70
2023-02-17T22:24:03.898Z,10.90
2023-02-17T22:26:34.796Z,10.80
2023-02-17T22:29:05.471Z,10.80
2023-02-17T22:31:36.444Z,10.90
2023-02-17T22:34:10.683Z,11.10
2023-02-17T22:36:41.397Z,11.10
2023-02-17T22:39:11.981Z,11.00
2023-02-17T22:41:43.084Z,11.20
2023-02-17T22:44:13.709Z,11.20
2023-02-17T22:46:44.465Z,11.20
2023-02-17T22:49:15.036Z,11.40
2023-02-17T22:51:45.761Z,11.50
2023-02-17T22:54:16.413Z,11.50
2023-02-17T22:56:47.132Z,11.60
2023-02-17T22:59:17.917Z,11.50
2023-02-17T23:01:48.647Z,11.50
2023-02-17T23:04:19.679Z,11.50
2023-02-17T23:06:50.434Z,11.50
2023-02-17T23:09:21.616Z,11.50
2023-02-17T23:11:54.220Z,11.40
2023-02-17T23:14:28.075Z,11.40
2023-02-17T23:19:39.249Z,11.30
2023-02-17T23:22:14.459Z,11.20
2023-02-17T23:24:45.174Z,11.20
2023-02-17T23:27:16.694Z,11.20
2023-02-17T23:29:47.313Z,11.20
2023-02-17T23:32:17.984Z,11.20
2023-02-17T23:34:48.660Z,11.20
2023-02-17T23:37:19.318Z,11.20
2023-02-17T23:39:49.934Z,11.20
2023-02-17T23:42:20.617Z,11.20
2023-02-17T23:44:51.254Z,11.20
2023-02-17T23:47:22.053Z,11.20
2023-02-17T23:49:52.615Z,11.10
2023-02-17T23:52:23.246Z,11.20
2023-02-17T23:54:54.181Z,11.20
2023-02-17T23:57:24.789Z,11.10
2023-02-17T23:59:55.759Z,11.10
